Time;durP1;ratioP1;P1;durP2;ratioP2;P2;SDS_P1;SDS_P2;PMS_P1;PMS_P2;Temp;Humidity;BMP_temperature;BMP_pressure;BME280_temperature;BME280_humidity;BME280_pressure;Samples;Min_cycle;Max_cycle;Signal;HPM_P1;HPM_P2
2023/04/09 00:00:14;;;;;;;29.97;20.40;;;4.90;99.90;;;;;;5180240;28;20192;-47
2023/04/09 00:02:46;;;;;;;32.83;21.20;;;4.90;99.90;;;;;;5183354;28;20641;-48
2023/04/09 00:05:16;;;;;;;37.53;19.70;;;4.80;99.90;;;;;;5182098;28;20184;-48
2023/04/09 00:07:47;;;;;;;38.03;22.80;;;4.80;99.90;;;;;;5182702;28;20437;-49
2023/04/09 00:10:18;;;;;;;43.63;23.47;;;4.70;99.90;;;;;;5181055;28;20183;-47
2023/04/09 00:12:48;;;;;;;42.40;23.70;;;4.70;99.90;;;;;;5180463;28;20286;-47
2023/04/09 00:15:19;;;;;;;35.70;22.87;;;4.60;99.90;;;;;;5174251;28;20183;-48
2023/04/09 00:17:51;;;;;;;43.13;23.53;;;4.60;99.90;;;;;;5181818;28;20245;-47
2023/04/09 00:20:21;;;;;;;47.27;24.60;;;4.60;99.90;;;;;;5175135;28;20260;-48
2023/04/09 00:22:52;;;;;;;37.70;23.50;;;4.60;99.90;;;;;;5183134;28;20438;-48
2023/04/09 00:25:23;;;;;;;34.97;20.83;;;4.70;99.90;;;;;;5171387;28;20183;-47
2023/04/09 00:27:55;;;;;;;41.00;22.07;;;4.60;99.90;;;;;;5180629;28;20437;-48
2023/04/09 00:30:28;;;;;;;39.00;21.63;;;4.60;99.90;;;;;;5173772;28;20264;-47
2023/04/09 00:32:59;;;;;;;35.17;21.20;;;4.60;99.90;;;;;;5182109;28;20470;-48
2023/04/09 00:35:30;;;;;;;39.00;22.27;;;4.60;99.90;;;;;;5179641;28;20438;-48
2023/04/09 00:38:01;;;;;;;39.13;25.60;;;4.50;99.90;;;;;;5182114;28;20436;-49
2023/04/09 00:40:31;;;;;;;45.80;23.67;;;4.50;99.90;;;;;;5182215;28;20705;-49
2023/04/09 00:43:02;;;;;;;37.67;22.33;;;4.60;99.90;;;;;;5183701;28;20174;-49
2023/04/09 00:45:33;;;;;;;37.80;23.00;;;4.60;99.90;;;;;;5182532;28;20215;-47
2023/04/09 00:48:04;;;;;;;36.30;22.30;;;4.50;99.90;;;;;;5159553;28;20436;-48
2023/04/09 00:50:35;;;;;;;44.77;24.17;;;4.60;99.90;;;;;;5180188;28;20208;-48
2023/04/09 00:53:06;;;;;;;40.27;23.10;;;4.50;99.90;;;;;;5182971;28;20207;-48
2023/04/09 00:55:39;;;;;;;36.73;22.70;;;4.60;99.90;;;;;;5182242;28;20791;-47
2023/04/09 00:58:10;;;;;;;45.33;23.80;;;4.50;99.90;;;;;;5183792;28;20191;-48
2023/04/09 01:00:41;;;;;;;41.60;23.40;;;4.50;99.90;;;;;;5181589;28;20882;-48
2023/04/09 01:03:12;;;;;;;42.43;24.40;;;4.50;99.90;;;;;;5184072;28;20530;-47
2023/04/09 01:05:48;;;;;;;42.93;24.33;;;4.40;99.90;;;;;;5174394;28;20188;-47
2023/04/09 01:08:36;;;;;;;44.17;24.73;;;4.40;99.90;;;;;;5182498;28;20757;-48
2023/04/09 01:11:09;;;;;;;39.43;23.00;;;4.30;99.90;;;;;;5169595;28;21020;-49
2023/04/09 01:14:00;;;;;;;39.60;23.83;;;4.30;99.90;;;;;;5173805;28;20474;-48
2023/04/09 01:16:33;;;;;;;37.33;22.30;;;4.30;99.90;;;;;;5183984;28;20786;-48
2023/04/09 01:50:07;;;;;;;36.50;20.50;;;4.00;99.90;;;;;;5182782;28;20834;-48
2023/04/09 01:52:38;;;;;;;36.13;21.40;;;3.90;99.90;;;;;;5186430;28;20447;-47
2023/04/09 01:55:09;;;;;;;40.07;22.50;;;3.90;99.90;;;;;;5185124;28;20420;-47
2023/04/09 01:57:39;;;;;;;46.03;23.07;;;3.80;99.90;;;;;;5180688;28;20205;-47
2023/04/09 02:00:11;;;;;;;46.60;24.90;;;3.90;99.90;;;;;;5186316;28;20239;-48
2023/04/09 02:02:50;;;;;;;39.13;23.13;;;3.90;99.90;;;;;;5174970;28;20550;-48
2023/04/09 02:05:25;;;;;;;38.73;22.33;;;3.90;99.90;;;;;;5186861;28;20447;-47
2023/04/09 02:08:00;;;;;;;36.47;20.90;;;3.90;99.90;;;;;;5186716;28;20437;-49
2023/04/09 02:10:34;;;;;;;40.40;22.70;;;3.80;99.90;;;;;;5185542;28;20509;-48
2023/04/09 02:13:08;;;;;;;41.27;22.30;;;3.80;99.90;;;;;;5187785;28;20617;-48
2023/04/09 02:15:40;;;;;;;33.70;21.53;;;3.80;99.90;;;;;;5180355;28;20910;-47
2023/04/09 02:18:28;;;;;;;39.67;22.03;;;3.80;99.90;;;;;;5173506;28;20512;-49
2023/04/09 02:20:59;;;;;;;42.50;23.30;;;3.70;99.90;;;;;;5184573;28;20505;-47
2023/04/09 02:23:32;;;;;;;37.50;23.70;;;3.70;99.90;;;;;;5167366;28;21020;-48
2023/04/09 02:26:02;;;;;;;40.63;22.63;;;3.70;99.90;;;;;;5169522;28;20906;-47
2023/04/09 02:28:33;;;;;;;41.90;22.37;;;3.80;99.90;;;;;;5186201;28;20478;-49
2023/04/09 02:31:04;;;;;;;36.60;21.67;;;3.80;99.90;;;;;;5186839;28;20561;-48
2023/04/09 02:33:34;;;;;;;42.93;22.93;;;3.70;99.90;;;;;;5181977;28;20229;-50
2023/04/09 02:36:05;;;;;;;36.67;23.73;;;3.70;99.90;;;;;;5174286;28;20441;-48
2023/04/09 02:38:36;;;;;;;41.27;22.83;;;3.70;99.90;;;;;;5183996;28;20196;-48
2023/04/09 02:41:07;;;;;;;48.53;24.03;;;3.70;99.90;;;;;;5177503;28;20196;-47
2023/04/09 02:43:37;;;;;;;40.30;23.80;;;3.70;99.90;;;;;;5185781;28;20191;-48
2023/04/09 02:46:08;;;;;;;46.97;25.67;;;3.70;99.90;;;;;;5184940;28;20533;-47
2023/04/09 02:48:39;;;;;;;41.10;24.27;;;3.80;99.90;;;;;;5152079;28;20188;-47
2023/04/09 02:51:09;;;;;;;48.33;26.90;;;3.80;99.90;;;;;;5174725;28;20213;-47
2023/04/09 02:53:40;;;;;;;39.10;24.53;;;3.90;99.90;;;;;;5181985;28;20221;-48
2023/04/09 02:56:10;;;;;;;51.73;25.57;;;3.90;99.90;;;;;;5170398;28;20182;-48
2023/04/09 02:58:41;;;;;;;47.63;25.97;;;3.90;99.90;;;;;;5180465;28;20178;-48
2023/04/09 03:01:12;;;;;;;50.00;26.13;;;4.00;99.90;;;;;;5171742;28;20202;-47
2023/04/09 03:03:42;;;;;;;39.53;24.07;;;3.90;99.90;;;;;;5167936;28;20192;-49
2023/04/09 03:06:13;;;;;;;46.00;26.97;;;3.90;99.90;;;;;;5184254;28;20556;-49
2023/04/09 03:08:44;;;;;;;41.20;24.90;;;4.00;99.90;;;;;;5182774;28;20206;-47
2023/04/09 03:11:14;;;;;;;44.53;24.60;;;3.90;99.90;;;;;;5184948;28;20205;-49
2023/04/09 03:13:45;;;;;;;38.90;24.33;;;3.90;99.90;;;;;;5184424;28;20209;-48
2023/04/09 03:16:16;;;;;;;44.67;25.67;;;3.90;99.90;;;;;;5183408;28;20178;-47
2023/04/09 03:18:46;;;;;;;50.47;26.53;;;3.80;99.90;;;;;;5181385;28;20196;-48
2023/04/09 03:21:17;;;;;;;48.23;26.87;;;3.80;99.90;;;;;;5176740;28;20563;-48
2023/04/09 03:23:47;;;;;;;40.90;25.77;;;3.70;99.90;;;;;;5181724;28;21814;-47
2023/04/09 03:26:18;;;;;;;41.43;26.47;;;3.60;99.90;;;;;;5183247;28;20220;-48
2023/04/09 03:28:48;;;;;;;47.37;27.30;;;3.60;99.90;;;;;;5185502;28;20410;-48
2023/04/09 03:31:19;;;;;;;54.17;28.90;;;3.50;99.90;;;;;;5184271;28;20411;-48
2023/04/09 03:33:50;;;;;;;43.27;24.97;;;3.50;99.90;;;;;;5183760;28;20189;-48
2023/04/09 03:36:20;;;;;;;41.70;24.60;;;3.40;99.90;;;;;;5167587;28;20180;-47
2023/04/09 03:38:51;;;;;;;52.47;26.40;;;3.50;99.90;;;;;;5187381;28;20244;-47
2023/04/09 03:41:21;;;;;;;50.70;27.40;;;3.40;99.90;;;;;;5182366;28;20204;-48
2023/04/09 03:43:52;;;;;;;43.53;26.07;;;3.40;99.90;;;;;;5184187;28;20204;-46
2023/04/09 03:46:23;;;;;;;47.03;25.47;;;3.50;99.90;;;;;;5185917;28;20232;-48
2023/04/09 03:48:54;;;;;;;37.07;24.63;;;3.40;99.90;;;;;;5184679;28;20264;-46
2023/04/09 03:51:26;;;;;;;45.87;25.23;;;3.40;99.90;;;;;;5183478;28;20908;-47
2023/04/09 03:53:56;;;;;;;39.80;23.27;;;3.30;99.90;;;;;;5169007;28;20527;-47
2023/04/09 03:56:27;;;;;;;34.73;21.77;;;3.30;99.90;;;;;;5174731;28;20447;-47
2023/04/09 03:58:57;;;;;;;45.97;22.50;;;3.30;99.90;;;;;;5184135;28;20172;-48
2023/04/09 04:01:28;;;;;;;36.60;22.77;;;3.30;99.90;;;;;;5167437;28;20338;-47
2023/04/09 04:03:59;;;;;;;41.37;23.87;;;3.40;99.90;;;;;;5180860;28;20180;-48
2023/04/09 04:06:33;;;;;;;34.83;22.70;;;3.40;99.90;;;;;;5183805;28;20192;-48
2023/04/09 04:09:03;;;;;;;42.10;24.93;;;3.30;99.90;;;;;;5183119;28;20179;-48
2023/04/09 04:11:34;;;;;;;51.83;27.73;;;3.40;99.90;;;;;;5176114;28;20455;-47
2023/04/09 04:14:05;;;;;;;38.83;23.60;;;3.30;99.90;;;;;;5176392;28;20176;-47
2023/04/09 04:16:35;;;;;;;44.57;26.03;;;3.40;99.90;;;;;;5185850;28;20189;-48
2023/04/09 04:19:06;;;;;;;43.17;26.80;;;3.50;99.90;;;;;;5181112;28;20195;-48
2023/04/09 04:21:37;;;;;;;51.20;27.27;;;3.60;99.90;;;;;;5183447;28;20200;-48
2023/04/09 04:24:07;;;;;;;38.80;24.50;;;3.60;99.90;;;;;;5176076;28;20173;-48
2023/04/09 04:26:39;;;;;;;56.10;29.30;;;3.70;99.90;;;;;;5181459;28;20214;-48
2023/04/09 04:29:09;;;;;;;105.53;32.83;;;3.80;99.90;;;;;;5182680;28;20549;-48
2023/04/09 04:31:40;;;;;;;50.73;27.10;;;3.80;99.90;;;;;;5185326;28;20488;-47
2023/04/09 04:34:10;;;;;;;92.67;34.40;;;3.70;99.90;;;;;;5171107;28;20179;-48
2023/04/09 04:36:41;;;;;;;83.97;31.27;;;3.70;99.90;;;;;;5182675;28;20207;-48
2023/04/09 04:39:12;;;;;;;56.03;29.80;;;3.70;99.90;;;;;;5176021;28;20180;-47
2023/04/09 04:41:42;;;;;;;59.27;30.73;;;3.80;99.90;;;;;;5183965;28;20669;-48
2023/04/09 04:44:13;;;;;;;59.80;31.23;;;3.80;99.90;;;;;;5174567;28;20832;-48
2023/04/09 04:46:43;;;;;;;54.17;29.27;;;3.80;99.90;;;;;;5183994;28;20193;-48
2023/04/09 04:49:14;;;;;;;56.10;28.60;;;3.90;99.90;;;;;;5183797;28;20262;-47
2023/04/09 04:51:45;;;;;;;54.90;28.80;;;4.00;99.90;;;;;;5183701;28;20549;-47
2023/04/09 04:54:16;;;;;;;47.80;28.03;;;4.10;99.90;;;;;;5183364;28;20192;-47
2023/04/09 04:56:46;;;;;;;50.47;28.00;;;4.20;99.90;;;;;;5194007;28;20186;-47
2023/04/09 04:59:18;;;;;;;52.63;27.60;;;4.30;99.90;;;;;;5182716;28;20268;-48
2023/04/09 05:01:48;;;;;;;50.17;27.10;;;4.40;99.90;;;;;;5184542;28;20209;-54
2023/04/09 05:04:19;;;;;;;49.93;27.13;;;4.50;99.90;;;;;;5171700;28;20443;-50
2023/04/09 05:06:50;;;;;;;51.03;27.83;;;4.60;99.90;;;;;;5180201;28;20184;-50
2023/04/09 05:09:20;;;;;;;42.37;25.90;;;4.70;99.90;;;;;;5183396;28;20262;-50
2023/04/09 05:11:51;;;;;;;48.07;26.60;;;4.70;99.90;;;;;;5177924;28;20217;-49
2023/04/09 05:14:22;;;;;;;45.07;27.70;;;4.80;99.90;;;;;;5181511;28;20186;-49
2023/04/09 05:16:53;;;;;;;46.47;25.83;;;5.00;99.90;;;;;;5174860;28;20189;-49
2023/04/09 05:19:24;;;;;;;51.40;27.53;;;5.00;99.90;;;;;;5182078;28;20446;-49
2023/04/09 05:21:54;;;;;;;56.17;29.93;;;5.00;99.90;;;;;;5183525;28;20552;-50
2023/04/09 05:24:25;;;;;;;59.13;28.97;;;5.10;99.90;;;;;;5174038;28;20552;-50
2023/04/09 05:26:56;;;;;;;55.10;28.17;;;5.10;99.90;;;;;;5174242;28;20516;-49
2023/04/09 05:29:27;;;;;;;52.07;27.93;;;5.10;99.90;;;;;;5180323;28;20453;-51
2023/04/09 05:31:57;;;;;;;44.50;26.57;;;5.10;99.90;;;;;;5195049;28;20333;-50
2023/04/09 05:34:28;;;;;;;50.57;27.77;;;5.20;99.90;;;;;;5183505;28;20213;-51
2023/04/09 05:36:59;;;;;;;46.73;26.60;;;5.30;99.90;;;;;;5172871;28;20218;-51
2023/04/09 05:39:31;;;;;;;50.27;25.80;;;5.40;99.90;;;;;;5175092;28;20597;-50
2023/04/09 05:42:02;;;;;;;49.03;27.60;;;5.40;99.90;;;;;;5168154;28;20246;-50
2023/04/09 05:44:33;;;;;;;53.93;26.97;;;5.40;99.90;;;;;;5182859;28;20446;-49
2023/04/09 05:47:04;;;;;;;45.00;24.57;;;5.50;99.90;;;;;;5176899;28;20196;-48
2023/04/09 05:49:35;;;;;;;48.20;26.00;;;5.40;99.90;;;;;;5181857;28;20191;-48
2023/04/09 05:52:05;;;;;;;43.70;23.47;;;5.50;99.90;;;;;;5179445;28;20466;-51
2023/04/09 05:54:36;;;;;;;43.83;24.63;;;5.60;99.90;;;;;;5179912;28;20469;-50
2023/04/09 05:57:07;;;;;;;40.93;22.43;;;5.70;99.90;;;;;;5171367;28;20540;-53
2023/04/09 05:59:37;;;;;;;44.50;24.47;;;5.70;99.90;;;;;;5183134;28;20183;-53
2023/04/09 06:02:08;;;;;;;43.87;26.40;;;5.70;99.90;;;;;;5168139;28;20620;-49
2023/04/09 06:04:38;;;;;;;51.37;25.60;;;5.80;99.90;;;;;;5182961;28;20675;-50
2023/04/09 06:07:09;;;;;;;47.73;25.83;;;5.90;99.90;;;;;;5184134;28;20195;-49
2023/04/09 06:09:40;;;;;;;47.73;26.30;;;6.00;99.90;;;;;;5184343;28;20191;-49
2023/04/09 06:12:10;;;;;;;41.40;24.70;;;6.00;99.90;;;;;;5167443;28;20203;-52
2023/04/09 06:14:41;;;;;;;52.60;27.37;;;6.20;99.90;;;;;;5186383;28;20184;-50
2023/04/09 06:17:12;;;;;;;48.67;26.00;;;6.20;99.90;;;;;;5184570;28;20219;-50
2023/04/09 06:19:42;;;;;;;53.87;25.50;;;6.30;99.90;;;;;;5172959;28;20192;-49
2023/04/09 06:22:13;;;;;;;43.53;24.50;;;6.40;99.90;;;;;;5182276;28;20208;-49
2023/04/09 06:24:44;;;;;;;37.50;24.20;;;6.20;99.90;;;;;;5180514;28;20242;-50
2023/04/09 06:27:15;;;;;;;50.43;26.13;;;6.20;99.90;;;;;;5169806;28;20187;-48
2023/04/09 06:29:45;;;;;;;42.10;24.53;;;6.20;99.90;;;;;;5175919;28;20451;-50
2023/04/09 06:32:16;;;;;;;44.13;24.90;;;6.20;99.90;;;;;;5177929;28;20211;-49
2023/04/09 06:34:47;;;;;;;41.87;23.47;;;6.30;99.90;;;;;;5186059;28;20183;-51
2023/04/09 06:37:17;;;;;;;45.10;25.03;;;6.40;99.90;;;;;;5182069;28;20238;-50
2023/04/09 06:39:48;;;;;;;43.00;24.60;;;6.60;99.90;;;;;;5184192;28;20238;-49
2023/04/09 06:42:19;;;;;;;36.20;23.50;;;6.70;99.90;;;;;;5170109;28;20605;-49
2023/04/09 06:44:49;;;;;;;44.07;24.83;;;6.80;99.90;;;;;;5169453;28;20200;-48
2023/04/09 06:47:20;;;;;;;48.07;26.10;;;6.90;99.90;;;;;;5184632;28;20211;-48
2023/04/09 06:49:51;;;;;;;49.23;26.73;;;6.90;99.90;;;;;;5174542;28;20259;-47
2023/04/09 06:52:21;;;;;;;37.30;22.43;;;6.80;99.90;;;;;;5167540;28;20211;-51
2023/04/09 06:54:52;;;;;;;37.80;23.77;;;6.80;99.90;;;;;;5170914;28;20176;-49
2023/04/09 06:57:22;;;;;;;41.90;24.17;;;6.90;99.90;;;;;;5167042;28;20176;-49
2023/04/09 06:59:53;;;;;;;41.47;23.83;;;6.90;99.90;;;;;;5176944;28;20184;-50
2023/04/09 07:02:24;;;;;;;38.83;23.70;;;6.90;99.90;;;;;;5171556;28;20216;-48
2023/04/09 07:04:54;;;;;;;40.37;23.37;;;7.00;99.90;;;;;;5169361;28;20260;-49
2023/04/09 07:07:25;;;;;;;37.10;21.63;;;7.10;99.90;;;;;;5186037;28;20211;-50
2023/04/09 07:09:56;;;;;;;39.20;22.80;;;7.20;99.90;;;;;;5184544;28;20641;-48
2023/04/09 07:12:30;;;;;;;42.50;23.83;;;7.30;99.90;;;;;;5183219;28;20212;-48
2023/04/09 07:15:02;;;;;;;39.97;23.23;;;7.30;99.90;;;;;;5183587;28;20188;-50
2023/04/09 07:17:33;;;;;;;34.53;21.50;;;7.20;99.90;;;;;;5182193;28;20420;-49
2023/04/09 07:20:05;;;;;;;36.53;22.63;;;7.20;99.90;;;;;;5185102;28;20430;-48
2023/04/09 07:22:35;;;;;;;38.70;23.73;;;7.30;99.90;;;;;;5181689;28;20455;-47
2023/04/09 07:25:06;;;;;;;35.77;23.70;;;7.20;99.90;;;;;;5174362;28;20447;-48
2023/04/09 07:27:37;;;;;;;44.37;23.97;;;7.30;99.90;;;;;;5176189;28;20214;-48
2023/04/09 07:30:09;;;;;;;47.50;25.23;;;7.30;99.90;;;;;;5172233;28;20807;-48
2023/04/09 07:32:40;;;;;;;53.83;23.17;;;7.20;99.90;;;;;;5173224;28;20223;-49
2023/04/09 07:35:11;;;;;;;37.53;24.03;;;7.20;99.90;;;;;;5184838;28;20423;-48
2023/04/09 07:37:41;;;;;;;46.00;25.10;;;7.30;99.90;;;;;;5177679;28;20213;-48
2023/04/09 07:40:12;;;;;;;39.53;23.90;;;7.40;99.90;;;;;;5183154;28;20209;-48
2023/04/09 07:42:43;;;;;;;39.77;24.97;;;7.50;99.90;;;;;;5172485;28;20719;-49
2023/04/09 07:45:13;;;;;;;38.30;22.07;;;7.70;99.90;;;;;;5184295;28;20215;-48
2023/04/09 07:47:44;;;;;;;43.37;24.27;;;7.80;99.90;;;;;;5183348;28;20230;-50
2023/04/09 07:50:15;;;;;;;40.20;23.10;;;7.80;99.90;;;;;;5183932;28;20188;-48
2023/04/09 07:52:46;;;;;;;40.73;21.47;;;7.80;99.90;;;;;;5154878;28;20200;-49
2023/04/09 07:55:17;;;;;;;45.60;23.87;;;7.90;99.90;;;;;;5168024;28;20246;-49
2023/04/09 07:57:47;;;;;;;38.10;23.30;;;7.90;99.90;;;;;;5174555;28;20439;-49
2023/04/09 08:00:18;;;;;;;38.77;22.50;;;8.00;99.90;;;;;;5180593;28;20450;-49
2023/04/09 08:02:49;;;;;;;42.57;25.47;;;8.10;99.90;;;;;;5167441;28;20219;-50
2023/04/09 08:05:20;;;;;;;36.97;22.90;;;8.30;99.90;;;;;;5175926;28;20242;-48
2023/04/09 08:07:52;;;;;;;41.23;23.93;;;8.30;99.90;;;;;;5173169;28;20471;-48
2023/04/09 08:10:22;;;;;;;43.60;23.97;;;8.40;99.90;;;;;;5182131;28;20177;-48
2023/04/09 08:12:53;;;;;;;38.50;23.23;;;8.20;99.90;;;;;;5157707;28;20803;-48
2023/04/09 08:15:24;;;;;;;43.20;23.90;;;8.30;99.90;;;;;;5183971;28;20191;-48
2023/04/09 08:17:55;;;;;;;37.83;23.10;;;8.30;99.90;;;;;;5184688;28;20173;-49
2023/04/09 08:20:26;;;;;;;45.00;26.03;;;8.20;99.90;;;;;;5189066;28;20966;-49
2023/04/09 08:22:58;;;;;;;44.97;25.30;;;8.30;99.90;;;;;;5188155;28;20932;-47
2023/04/09 08:25:28;;;;;;;51.57;25.50;;;8.50;99.90;;;;;;5180864;28;20947;-48
2023/04/09 08:27:59;;;;;;;40.30;23.33;;;8.60;99.90;;;;;;5181954;28;20513;-49
2023/04/09 08:30:30;;;;;;;43.03;23.23;;;8.50;99.90;;;;;;5182662;28;20247;-48
2023/04/09 08:33:01;;;;;;;36.23;21.83;;;8.50;99.90;;;;;;5164659;28;20209;-48
2023/04/09 08:35:32;;;;;;;36.00;23.13;;;8.50;99.90;;;;;;5169759;28;20177;-48
2023/04/09 08:38:02;;;;;;;43.67;24.30;;;8.60;99.90;;;;;;5179371;28;20422;-48
2023/04/09 08:40:34;;;;;;;41.43;23.33;;;8.70;99.90;;;;;;5178952;28;20475;-49
2023/04/09 08:43:06;;;;;;;43.10;24.60;;;8.70;99.90;;;;;;5181830;28;20181;-48
2023/04/09 08:45:40;;;;;;;35.73;22.43;;;8.80;99.90;;;;;;5153086;28;20597;-48
2023/04/09 08:48:12;;;;;;;39.57;22.80;;;8.80;99.90;;;;;;5181214;28;20431;-49
2023/04/09 08:50:45;;;;;;;41.50;24.47;;;8.90;99.90;;;;;;5186637;28;20449;-49
2023/04/09 08:53:18;;;;;;;36.40;23.07;;;9.10;99.90;;;;;;5181547;28;20471;-49
2023/04/09 08:55:48;;;;;;;42.50;24.20;;;9.00;99.90;;;;;;5168059;28;20442;-50
2023/04/09 08:58:19;;;;;;;38.67;22.50;;;8.90;99.90;;;;;;5179875;28;20436;-49
2023/04/09 09:00:50;;;;;;;47.80;24.93;;;9.00;99.90;;;;;;5168099;28;20216;-48
2023/04/09 09:03:20;;;;;;;41.77;25.10;;;9.20;99.90;;;;;;5169291;28;20241;-48
2023/04/09 09:05:51;;;;;;;37.83;23.33;;;9.20;99.90;;;;;;5182792;28;20275;-46
2023/04/09 09:08:25;;;;;;;41.00;24.20;;;9.40;99.90;;;;;;5183643;28;20192;-46
2023/04/09 09:10:56;;;;;;;38.20;22.93;;;9.50;99.90;;;;;;5166176;28;20211;-48
2023/04/09 09:13:27;;;;;;;37.40;23.90;;;9.50;99.90;;;;;;5182722;28;20781;-50
2023/04/09 09:16:15;;;;;;;42.83;25.20;;;9.70;99.90;;;;;;5182235;28;20188;-49
2023/04/09 09:18:45;;;;;;;43.60;25.20;;;9.70;99.90;;;;;;5178729;28;20820;-48
2023/04/09 09:21:18;;;;;;;38.80;23.60;;;9.90;99.90;;;;;;5181774;28;20490;-49
2023/04/09 09:23:49;;;;;;;34.97;22.97;;;10.10;99.90;;;;;;5163620;28;20196;-48
2023/04/09 09:26:23;;;;;;;40.67;23.67;;;10.10;99.90;;;;;;5183313;28;20525;-49
2023/04/09 09:28:57;;;;;;;30.97;21.67;;;10.40;99.90;;;;;;5164330;28;20439;-48
2023/04/09 09:31:28;;;;;;;39.20;23.17;;;10.60;99.90;;;;;;5179451;28;20524;-48
2023/04/09 09:34:07;;;;;;;33.33;22.33;;;10.70;99.90;;;;;;5180017;28;20482;-51
2023/04/09 09:36:38;;;;;;;31.40;20.00;;;10.70;99.90;;;;;;5184365;28;20534;-49
2023/04/09 09:39:11;;;;;;;38.37;23.23;;;11.00;99.90;;;;;;5173036;28;20455;-50
2023/04/09 09:41:42;;;;;;;38.00;21.87;;;11.20;99.90;;;;;;5159932;28;20211;-50
2023/04/09 09:44:31;;;;;;;38.07;22.83;;;11.00;99.90;;;;;;5179224;28;20841;-49
2023/04/09 09:47:03;;;;;;;34.03;21.87;;;10.80;99.90;;;;;;5170593;28;20798;-49
2023/04/09 09:49:34;;;;;;;34.13;22.10;;;11.20;99.90;;;;;;5181055;28;20517;-49
2023/04/09 09:52:09;;;;;;;33.60;19.67;;;11.50;99.90;;;;;;5177244;28;20470;-50
2023/04/09 09:54:41;;;;;;;34.77;20.37;;;11.90;99.90;;;;;;5179651;28;20184;-49
2023/04/09 09:57:13;;;;;;;29.87;20.00;;;12.10;99.90;;;;;;5180178;28;20798;-47
2023/04/09 09:59:53;;;;;;;32.40;20.00;;;12.20;99.90;;;;;;5159251;28;20490;-50
2023/04/09 10:02:29;;;;;;;35.43;21.03;;;11.70;99.90;;;;;;5180282;28;20473;-48
2023/04/09 10:05:00;;;;;;;33.10;20.37;;;11.50;99.90;;;;;;5175088;28;20431;-47
2023/04/09 10:07:31;;;;;;;34.40;20.83;;;11.00;99.90;;;;;;5171045;28;20455;-49
2023/04/09 10:10:04;;;;;;;34.00;22.60;;;11.00;99.90;;;;;;5173232;28;20549;-48
2023/04/09 10:12:35;;;;;;;36.20;21.67;;;10.90;99.90;;;;;;5180971;28;20871;-48
2023/04/09 10:15:06;;;;;;;33.00;20.53;;;10.80;99.90;;;;;;5185032;28;20451;-48
2023/04/09 10:17:37;;;;;;;30.10;19.43;;;11.20;99.90;;;;;;5156348;28;20207;-49
2023/04/09 10:20:31;;;;;;;32.57;19.17;;;11.70;99.90;;;;;;5177284;28;20431;-49
2023/04/09 10:23:08;;;;;;;31.00;19.80;;;11.90;99.90;;;;;;5179543;28;20448;-48
2023/04/09 10:25:40;;;;;;;31.80;19.73;;;11.80;99.90;;;;;;5169550;28;20451;-51
2023/04/09 10:28:16;;;;;;;36.47;20.50;;;11.80;99.90;;;;;;5162188;28;20478;-50
2023/04/09 10:30:47;;;;;;;33.03;20.07;;;11.30;99.90;;;;;;5171759;28;20469;-50
2023/04/09 10:33:25;;;;;;;31.90;19.20;;;10.90;99.90;;;;;;5163527;28;20483;-49
2023/04/09 10:36:03;;;;;;;33.63;18.97;;;10.80;99.90;;;;;;5178539;28;20184;-49
2023/04/09 10:38:44;;;;;;;28.60;18.53;;;11.00;99.90;;;;;;5180634;28;20521;-48
2023/04/09 10:41:26;;;;;;;29.73;17.53;;;11.40;99.90;;;;;;5182743;28;20466;-49
2023/04/09 10:43:57;;;;;;;32.57;19.03;;;11.90;99.90;;;;;;5175847;28;20439;-49
2023/04/09 10:46:37;;;;;;;29.53;18.37;;;12.30;99.90;;;;;;5171059;28;20900;-46
2023/04/09 10:49:16;;;;;;;30.00;17.80;;;12.60;99.90;;;;;;5170110;28;20192;-48
2023/04/09 10:51:53;;;;;;;32.67;17.97;;;12.80;99.90;;;;;;5180760;28;21046;-48
2023/04/09 10:54:33;;;;;;;25.90;17.57;;;12.90;99.90;;;;;;5181188;28;20461;-47
2023/04/09 10:57:06;;;;;;;29.10;16.60;;;13.00;99.90;;;;;;5178171;28;21762;-48
2023/04/09 10:59:39;;;;;;;27.70;17.73;;;13.10;99.90;;;;;;5186854;28;20597;-48
2023/04/09 11:02:37;;;;;;;29.00;16.50;;;13.10;99.90;;;;;;5196808;23;20694;-51
2023/04/09 11:05:26;;;;;;;23.27;15.97;;;13.10;99.90;;;;;;5182621;28;20513;-51
2023/04/09 11:08:11;;;;;;;25.27;16.13;;;12.90;99.90;;;;;;5184980;28;20732;-53
2023/04/09 11:10:43;;;;;;;28.23;17.13;;;12.60;99.90;;;;;;5180333;28;20439;-52
2023/04/09 11:13:16;;;;;;;27.40;17.20;;;12.50;99.90;;;;;;5164725;28;20581;-50
2023/04/09 11:15:46;;;;;;;32.10;17.60;;;12.40;99.90;;;;;;5162234;28;21126;-52
2023/04/09 11:18:21;;;;;;;32.97;19.00;;;12.20;99.90;;;;;;5158378;28;21204;-50
2023/04/09 11:20:56;;;;;;;25.73;16.67;;;12.10;99.90;;;;;;5163880;28;20216;-51
2023/04/09 11:23:27;;;;;;;30.30;16.87;;;11.70;99.90;;;;;;5162316;28;20932;-52
2023/04/09 11:25:58;;;;;;;33.13;17.43;;;11.50;99.90;;;;;;5151777;28;20460;-52
2023/04/09 11:28:28;;;;;;;29.90;18.10;;;11.80;99.90;;;;;;5161097;28;20451;-50
2023/04/09 11:31:00;;;;;;;32.93;18.67;;;12.20;99.90;;;;;;5160393;28;20209;-52
2023/04/09 11:33:32;;;;;;;32.93;18.97;;;12.10;99.90;;;;;;5159400;28;20215;-50
2023/04/09 11:36:06;;;;;;;29.00;18.27;;;11.90;99.90;;;;;;5159001;28;20436;-51
2023/04/09 11:38:37;;;;;;;32.23;19.80;;;11.40;99.90;;;;;;5175592;28;20444;-51
2023/04/09 11:41:11;;;;;;;31.87;18.33;;;11.00;99.90;;;;;;5156561;28;20456;-52
2023/04/09 11:43:42;;;;;;;29.63;17.73;;;10.80;99.90;;;;;;5160525;28;20599;-52
2023/04/09 11:46:13;;;;;;;27.27;18.97;;;10.60;99.90;;;;;;5157107;28;20577;-53
2023/04/09 11:48:44;;;;;;;32.40;18.90;;;10.40;99.90;;;;;;5144890;28;20201;-52
2023/04/09 11:51:15;;;;;;;30.63;18.83;;;10.50;99.90;;;;;;5156977;28;20545;-51
2023/04/09 11:53:48;;;;;;;30.30;17.93;;;10.70;99.90;;;;;;5160338;28;21046;-51
2023/04/09 11:56:19;;;;;;;30.50;17.80;;;11.00;99.90;;;;;;5150875;28;20457;-51
2023/04/09 11:58:50;;;;;;;30.70;18.23;;;11.30;99.90;;;;;;5160023;28;20472;-53
2023/04/09 12:01:21;;;;;;;34.93;19.93;;;11.60;99.90;;;;;;5166819;28;20500;-52
2023/04/09 12:03:55;;;;;;;29.80;18.30;;;11.50;99.90;;;;;;5161044;28;20208;-53
2023/04/09 12:06:26;;;;;;;34.73;18.33;;;11.30;99.90;;;;;;5159466;28;20560;-52
2023/04/09 12:08:58;;;;;;;28.80;15.83;;;11.20;99.90;;;;;;5158436;28;20558;-52
2023/04/09 12:11:30;;;;;;;28.30;16.93;;;11.20;99.90;;;;;;5149983;28;20511;-49
2023/04/09 12:14:02;;;;;;;30.80;17.73;;;11.30;99.90;;;;;;5157353;28;20999;-52
2023/04/09 12:16:35;;;;;;;28.47;16.43;;;11.20;99.90;;;;;;5165036;28;20452;-49
2023/04/09 12:19:08;;;;;;;32.13;17.60;;;11.20;99.90;;;;;;5161116;28;20443;-51
2023/04/09 12:21:54;;;;;;;30.20;17.50;;;11.20;99.90;;;;;;5164516;28;20460;-52
2023/04/09 12:24:26;;;;;;;32.20;18.47;;;11.40;99.90;;;;;;5165613;28;20540;-50
2023/04/09 12:26:57;;;;;;;31.73;17.40;;;11.40;99.90;;;;;;5162122;28;20447;-52
2023/04/09 12:29:28;;;;;;;32.77;17.97;;;11.50;99.90;;;;;;5152321;28;20456;-51
2023/04/09 12:31:59;;;;;;;27.43;17.90;;;11.30;99.90;;;;;;5153774;28;22487;-53
2023/04/09 12:34:30;;;;;;;30.10;17.90;;;11.20;99.90;;;;;;5149376;28;20447;-52
2023/04/09 12:37:01;;;;;;;27.90;16.80;;;11.20;99.90;;;;;;5158644;28;20433;-53
2023/04/09 12:39:31;;;;;;;34.37;18.03;;;11.20;99.90;;;;;;5152579;28;20241;-50
2023/04/09 12:42:02;;;;;;;32.60;17.43;;;11.40;99.90;;;;;;5162056;28;20267;-54
2023/04/09 12:44:33;;;;;;;36.57;18.77;;;11.60;99.90;;;;;;5157034;28;20281;-51
2023/04/09 12:47:03;;;;;;;39.10;19.10;;;11.80;99.90;;;;;;5160472;28;20451;-50
2023/04/09 12:49:34;;;;;;;35.97;19.47;;;11.90;99.90;;;;;;5155585;28;20216;-51
2023/04/09 12:52:05;;;;;;;32.50;19.17;;;12.00;99.90;;;;;;5169648;28;20213;-52
2023/04/09 12:54:36;;;;;;;36.47;20.70;;;12.00;99.90;;;;;;5159366;28;20364;-52
2023/04/09 12:57:06;;;;;;;37.17;18.43;;;12.00;99.90;;;;;;5159673;28;20444;-50
2023/04/09 12:59:37;;;;;;;34.97;19.80;;;11.80;99.90;;;;;;5165371;28;20186;-52
2023/04/09 13:02:08;;;;;;;40.10;19.43;;;11.70;99.90;;;;;;5159974;28;20217;-53
2023/04/09 13:04:38;;;;;;;29.63;18.30;;;11.50;99.90;;;;;;5160446;28;20189;-51
2023/04/09 13:07:10;;;;;;;31.17;19.37;;;11.40;99.90;;;;;;5162681;28;20192;-52
2023/04/09 13:09:41;;;;;;;30.93;17.80;;;11.50;99.90;;;;;;5170042;28;20321;-52
2023/04/09 13:12:13;;;;;;;28.97;17.53;;;11.60;99.90;;;;;;5157396;28;20504;-52
2023/04/09 13:14:46;;;;;;;33.53;19.10;;;11.70;99.90;;;;;;5165528;28;20448;-51
2023/04/09 13:17:16;;;;;;;33.40;18.17;;;12.00;99.90;;;;;;5165245;28;22268;-51
2023/04/09 13:19:48;;;;;;;29.23;17.37;;;12.00;99.90;;;;;;5166605;28;20427;-52
2023/04/09 13:22:19;;;;;;;31.53;18.30;;;12.20;99.90;;;;;;5166519;28;20207;-52
2023/04/09 13:24:50;;;;;;;31.07;17.17;;;12.30;99.90;;;;;;5165291;28;20443;-52
2023/04/09 13:27:20;;;;;;;34.33;17.97;;;12.30;99.90;;;;;;5156443;28;20543;-53